Terminal Aerodrome Forecast
Issued by NWS

Home | Current Version | Previous Version | Text Only | Print | Product List | Glossary On
Versions: 1 2 3 4 5 6 7 8 9 10 11 12 13 14 15 16 17 18 19 20 21 22 23 24 25 26 27 28 29 30 31 32 33 34
000
FTUS45 KBOI 291139
TAFTWF
TAF
KTWF 291139Z 2912/3012 20008KT P6SM VCSH OVC015
     FM291500 10008KT 3SM -SHSN BR OVC010
     FM292300 13011KT P6SM BKN020
     FM300400 10010KT P6SM BKN050=

USA.gov is the U.S. government's official web portal to all federal, state and local government web resources and services.